Latest Weather Observations for St Kilda Harbour RMYS

IDV60801

Issued at 2:05 am EDT Wednesday 22 October 2014 (issued every 30 minutes, with the page automatically refreshed every 10 minutes)

About weather observations | Map of weather stations | Latest weather observations for VIC | Other Formats
Station Details ID: 086220 Name: ST KILDA HARBOUR - RMYS Lat: -37.86 Lon: 144.96 Height: 6.4 m
Data from the previous 72 hours. | See also: Recent months for locations in Victoria
Date/Time
EDT
Temp
°C
App
Temp
°C
Dew
Point
Rel
Hum
%
Delta-T
°C
Wind Press
QNH
hPa
Press
MSL
hPa
Rain
since 9 am
mm
Dir
 
Spd
km/h
Gust
km/h
Spd
kts
Gust
kts
22/02:00am - - - - - NNE 9 11 5 6 - - -
22/01:30am - - - - - NNE 9 11 5 6 - - -
22/01:00am - - - - - NNE 7 9 4 5 - - -
22/12:30am - - - - - NNE 7 9 4 5 - - -
22/12:00am - - - - - NNE 7 9 4 5 - - -
 
Date/Time
EDT
Temp
°C
App
Temp
°C
Dew
Point
Rel
Hum
%
Delta-T
°C
Wind Press
QNH
hPa
Press
MSL
hPa
Rain
since 9 am
mm
Dir
 
Spd
km/h
Gust
km/h
Spd
kts
Gust
kts
21/11:30pm - - - - - NE 7 11 4 6 - - -
21/11:00pm - - - - - N 4 6 2 3 - - -
21/10:30pm - - - - - NE 6 9 3 5 - - -
21/10:00pm - - - - - E 7 11 4 6 - - -
21/09:30pm - - - - - E 11 17 6 9 - - -
21/09:00pm - - - - - E 19 22 10 12 - - -
21/08:30pm - - - - - ESE 17 22 9 12 - - -
21/08:00pm - - - - - ESE 17 22 9 12 - - -
21/07:30pm - - - - - ESE 19 26 10 14 - - -
21/07:00pm - - - - - SE 22 28 12 15 - - -
21/06:30pm - - - - - SE 22 30 12 16 - - -
21/06:00pm - - - - - SSE 20 26 11 14 - - -
21/05:30pm - - - - - SSE 22 30 12 16 - - -
21/05:00pm - - - - - SSE 24 28 13 15 - - -
21/04:30pm - - - - - S 22 28 12 15 - - -
21/04:00pm - - - - - S 28 33 15 18 - - -
21/03:30pm - - - - - S 26 30 14 16 - - -
21/03:00pm - - - - - S 24 30 13 16 - - -
21/02:30pm - - - - - S 22 26 12 14 - - -
21/02:00pm - - - - - S 20 26 11 14 - - -
21/01:30pm - - - - - S 9 11 5 6 - - -
21/01:00pm - - - - - ENE 13 24 7 13 - - -
21/12:30pm - - - - - NE 13 24 7 13 - - -
21/12:00pm - - - - - NE 9 22 5 12 - - -
21/11:30am - - - - - ENE 15 22 8 12 - - -
21/11:00am - - - - - ENE 13 20 7 11 - - -
21/10:30am - - - - - NE 9 15 5 8 - - -
21/10:00am - - - - - NE 7 15 4 8 - - -
21/09:30am - - - - - NE 9 13 5 7 - - -
21/09:00am - - - - - ENE 9 13 5 7 - - -
21/08:30am - - - - - NE 9 11 5 6 - - -
21/08:00am - - - - - NE 9 13 5 7 - - -
21/07:30am - - - - - NE 7 9 4 5 - - -
21/07:00am - - - - - NE 7 9 4 5 - - -
21/06:30am - - - - - NNE 7 9 4 5 - - -
21/06:00am - - - - - NNE 6 9 3 5 - - -
21/05:30am - - - - - NE 4 7 2 4 - - -
21/05:00am - - - - - N 6 7 3 4 - - -
21/04:30am - - - - - N 7 9 4 5 - - -
21/04:00am - - - - - N 7 11 4 6 - - -
21/03:30am - - - - - NNW 7 9 4 5 - - -
21/03:00am - - - - - NNW 7 13 4 7 - - -
21/02:30am - - - - - ENE 7 11 4 6 - - -
21/02:00am - - - - - ENE 7 11 4 6 - - -
21/01:30am - - - - - ENE 6 11 3 6 - - -
21/01:00am - - - - - ENE 9 15 5 8 - - -
21/12:30am - - - - - ENE 11 19 6 10 - - -
21/12:00am - - - - - E 13 20 7 11 - - -
 
Date/Time
EDT
Temp
°C
App
Temp
°C
Dew
Point
Rel
Hum
%
Delta-T
°C
Wind Press
QNH
hPa
Press
MSL
hPa
Rain
since 9 am
mm
Dir
 
Spd
km/h
Gust
km/h
Spd
kts
Gust
kts
20/11:30pm - - - - - E 13 20 7 11 - - -
20/11:00pm - - - - - E 19 28 10 15 - - -
20/10:30pm - - - - - ESE 19 30 10 16 - - -
20/10:00pm - - - - - SE 19 28 10 15 - - -
20/09:30pm - - - - - SE 20 28 11 15 - - -
20/09:00pm - - - - - SE 24 33 13 18 - - -
20/08:30pm - - - - - SE 24 37 13 20 - - -
20/08:00pm - - - - - SE 24 39 13 21 - - -
20/07:30pm - - - - - SE 26 39 14 21 - - -
20/07:00pm - - - - - SE 30 46 16 25 - - -
20/06:30pm - - - - - SE 33 43 18 23 - - -
20/06:00pm - - - - - SE 28 39 15 21 - - -
20/05:30pm - - - - - SE 30 43 16 23 - - -
20/05:00pm - - - - - SE 30 41 16 22 - - -
20/04:30pm - - - - - SSE 24 35 13 19 - - -
20/04:00pm - - - - - SSE 20 41 11 22 - - -
20/03:30pm - - - - - S 24 33 13 18 - - -
20/03:00pm - - - - - SSE 30 41 16 22 - - -
20/02:30pm - - - - - SE 26 39 14 21 - - -
20/02:00pm - - - - - SE 26 41 14 22 - - -
20/01:30pm - - - - - SE 28 37 15 20 - - -
20/01:00pm - - - - - SE 22 39 12 21 - - -
20/12:30pm - - - - - SE 24 35 13 19 - - -
20/12:00pm - - - - - SSE 20 32 11 17 - - -
20/11:30am - - - - - SE 22 37 12 20 - - -
20/11:00am - - - - - SE 26 39 14 21 - - -
20/10:30am - - - - - SE 24 37 13 20 - - -
20/10:00am - - - - - ESE 26 37 14 20 - - -
20/09:30am - - - - - ESE 24 35 13 19 - - -
20/09:00am - - - - - SE 26 41 14 22 - - -
20/08:30am - - - - - SE 26 35 14 19 - - -
20/08:00am - - - - - SE 19 26 10 14 - - -
20/07:30am - - - - - SE 20 28 11 15 - - -
20/07:00am - - - - - SE 20 28 11 15 - - -
20/06:30am - - - - - SE 19 24 10 13 - - -
20/06:00am - - - - - SE 20 28 11 15 - - -
20/05:30am - - - - - SE 22 30 12 16 - - -
20/05:00am - - - - - ESE 20 30 11 16 - - -
20/04:30am - - - - - SE 22 33 12 18 - - -
20/04:00am - - - - - SE 22 30 12 16 - - -
20/03:30am - - - - - SE 22 30 12 16 - - -
20/03:00am - - - - - SE 22 30 12 16 - - -
20/02:30am - - - - - SSE 28 35 15 19 - - -
20/02:00am - - - - - SE 20 28 11 15 - - -
20/01:30am - - - - - SSE 26 35 14 19 - - -
20/01:00am - - - - - SSE 30 39 16 21 - - -
20/12:30am - - - - - SSE 30 37 16 20 - - -
20/12:00am - - - - - SSE 37 43 20 23 - - -
 
Date/Time
EDT
Temp
°C
App
Temp
°C
Dew
Point
Rel
Hum
%
Delta-T
°C
Wind Press
QNH
hPa
Press
MSL
hPa
Rain
since 9 am
mm
Dir
 
Spd
km/h
Gust
km/h
Spd
kts
Gust
kts
19/11:30pm - - - - - SSE 35 44 19 24 - - -
19/11:00pm - - - - - SSE 37 44 20 24 - - -
19/10:30pm - - - - - SSE 28 37 15 20 - - -
19/10:00pm - - - - - S 33 39 18 21 - - -
19/09:30pm - - - - - S 33 41 18 22 - - -
19/09:00pm - - - - - S 28 32 15 17 - - -
19/08:30pm - - - - - S 24 28 13 15 - - -
19/08:00pm - - - - - S 30 37 16 20 - - -
19/07:30pm - - - - - S 30 37 16 20 - - -
19/07:00pm - - - - - S 32 37 17 20 - - -
19/06:30pm - - - - - S 32 37 17 20 - - -
19/06:00pm - - - - - S 35 46 19 25 - - -
19/05:30pm - - - - - S 39 46 21 25 - - -
19/05:00pm - - - - - S 37 48 20 26 - - -
19/04:30pm - - - - - S 33 41 18 22 - - -
19/04:00pm - - - - - S 33 41 18 22 - - -
19/03:30pm - - - - - SSW 35 50 19 27 - - -
19/03:00pm - - - - - N 24 39 13 21 - - -
19/02:30pm - - - - - N 32 44 17 24 - - -
19/02:00pm - - - - - N 30 43 16 23 - - -
19/01:31pm - - - - - N 30 52 16 28 - - -
19/01:30pm - - - - - N 28 44 15 24 - - -
19/01:00pm - - - - - N 30 46 16 25 - - -
19/12:31pm - - - - - N 35 54 19 29 - - -
19/12:30pm - - - - - N 37 54 20 29 - - -
19/12:04pm - - - - - N 32 52 17 28 - - -
19/12:00pm - - - - - N 33 52 18 28 - - -
19/11:46am - - - - - NNW 33 56 18 30 - - -
19/11:30am - - - - - N 30 46 16 25 - - -
19/11:02am - - - - - N 33 56 18 30 - - -
19/11:00am - - - - - N 33 50 18 27 - - -
19/10:30am - - - - - N 37 57 20 31 - - -
19/10:04am - - - - - N 33 52 18 28 - - -
19/10:00am - - - - - N 33 48 18 26 - - -
19/09:33am - - - - - N 37 56 20 30 - - -
19/09:30am - - - - - N 37 54 20 29 - - -
19/09:00am - - - - - N 33 56 18 30 - - -
19/08:30am - - - - - N 33 57 18 31 - - -
19/08:24am - - - - - N 35 57 19 31 - - -
19/08:00am - - - - - N 32 48 17 26 - - -
19/07:30am - - - - - N 32 44 17 24 - - -
19/07:00am - - - - - N 30 43 16 23 - - -
19/06:30am - - - - - N 32 44 17 24 - - -
19/06:00am - - - - - N 32 44 17 24 - - -
19/05:30am - - - - - N 30 44 16 24 - - -
19/05:00am - - - - - N 33 52 18 28 - - -
19/04:36am - - - - - N 28 48 15 26 - - -
19/04:30am - - - - - N 26 37 14 20 - - -
19/04:00am - - - - - N 24 35 13 19 - - -
19/03:30am - - - - - N 24 33 13 18 - - -
19/03:00am - - - - - N 26 35 14 19 - - -
19/02:30am - - - - - N 24 33 13 18 - - -

Other Formats:

Comma delimited format used in spreadsheet applications
http://www.bom.gov.au/fwo/IDV60801/IDV60801.95864.axf

JavaScript Object Notation format (JSON) in row-major order
http://www.bom.gov.au/fwo/IDV60801/IDV60801.95864.json